createdAt,value
2022-08-07T00:00:39.915Z,41.08
2022-08-07T00:03:08.700Z,41.38
2022-08-07T00:05:38.895Z,40.99
2022-08-07T00:08:08.035Z,40.96
2022-08-07T00:10:48.224Z,41.27
2022-08-07T00:13:25.827Z,41.79
2022-08-07T00:15:55.135Z,41.48
2022-08-07T00:18:25.092Z,41.35
2022-08-07T00:20:56.806Z,41.52
2022-08-07T00:23:28.278Z,42.05
2022-08-07T00:26:01.609Z,41.77
2022-08-07T00:28:34.387Z,41.88
2022-08-07T00:31:04.313Z,42.03
2022-08-07T00:33:33.808Z,42.25
2022-08-07T00:36:03.621Z,42.51
2022-08-07T00:38:33.267Z,42.50
2022-08-07T00:41:02.106Z,42.35
2022-08-07T00:43:59.033Z,42.52
2022-08-07T00:46:17.929Z,42.64
2022-08-07T00:48:45.743Z,42.37
2022-08-07T00:51:19.237Z,43.07
2022-08-07T00:53:54.998Z,43.30
2022-08-07T00:56:30.059Z,43.65
2022-08-07T00:58:58.651Z,43.54
2022-08-07T01:01:26.784Z,43.43
2022-08-07T01:04:00.077Z,43.57
2022-08-07T01:06:30.043Z,43.86
2022-08-07T01:09:00.972Z,43.80
2022-08-07T01:12:10.140Z,43.80
2022-08-07T01:14:17.448Z,43.99
2022-08-07T01:16:49.752Z,43.64
2022-08-07T01:19:19.918Z,43.56
2022-08-07T01:21:53.342Z,43.62
2022-08-07T01:24:23.571Z,43.82
2022-08-07T01:26:52.716Z,43.71
2022-08-07T01:29:23.492Z,43.64
2022-08-07T01:31:59.678Z,43.48
2022-08-07T01:34:27.958Z,44.04
2022-08-07T01:37:00.300Z,43.61
2022-08-07T01:39:41.135Z,43.75
2022-08-07T01:42:39.874Z,43.72
2022-08-07T01:45:04.880Z,44.02
2022-08-07T01:48:18.154Z,43.86
2022-08-07T01:50:28.959Z,43.81
2022-08-07T01:53:00.345Z,44.27
2022-08-07T01:55:35.321Z,44.14
2022-08-07T01:58:28.887Z,44.26
2022-08-07T02:01:09.767Z,44.44
2022-08-07T02:03:50.235Z,44.17
2022-08-07T02:06:31.986Z,44.56
2022-08-07T02:09:05.142Z,44.23
2022-08-07T02:12:04.982Z,44.57
2022-08-07T02:14:35.951Z,44.54
2022-08-07T02:17:09.917Z,44.46
2022-08-07T02:20:07.359Z,44.77
2022-08-07T02:22:30.406Z,45.10
2022-08-07T02:25:00.806Z,44.82
2022-08-07T02:27:34.645Z,45.21
2022-08-07T02:30:07.465Z,45.28
2022-08-07T02:32:39.599Z,44.99
2022-08-07T02:36:30.136Z,44.88
2022-08-07T02:38:16.686Z,45.58
2022-08-07T02:40:47.113Z,45.12
2022-08-07T02:43:16.843Z,45.27
2022-08-07T02:46:00.658Z,45.22
2022-08-07T02:48:30.268Z,45.75
2022-08-07T02:51:01.778Z,45.59
2022-08-07T02:53:38.695Z,45.76
2022-08-07T02:56:21.128Z,45.60
2022-08-07T02:58:51.490Z,45.91
2022-08-07T03:01:35.471Z,46.33
2022-08-07T03:04:07.212Z,46.91
2022-08-07T03:06:36.404Z,46.94
2022-08-07T03:09:11.500Z,46.88
2022-08-07T03:11:52.287Z,46.88
2022-08-07T03:14:27.874Z,46.54
2022-08-07T03:16:56.788Z,46.55
2022-08-07T03:19:29.041Z,46.76
2022-08-07T03:22:07.073Z,46.74
2022-08-07T03:24:36.751Z,47.07
2022-08-07T03:27:09.231Z,47.00
2022-08-07T03:29:44.587Z,47.01
2022-08-07T03:32:20.106Z,47.08
2022-08-07T03:35:00.936Z,47.09
2022-08-07T03:37:46.503Z,47.21
2022-08-07T03:40:22.345Z,47.56
2022-08-07T03:42:52.472Z,47.57
2022-08-07T03:45:31.117Z,47.79
2022-08-07T03:48:00.117Z,47.68
2022-08-07T03:50:29.123Z,48.10
2022-08-07T03:52:58.927Z,48.19
2022-08-07T03:55:53.414Z,47.71
2022-08-07T03:59:07.063Z,47.83
2022-08-07T04:01:07.627Z,47.97
2022-08-07T04:03:53.845Z,48.38
2022-08-07T04:06:37.258Z,47.94
2022-08-07T04:09:08.331Z,48.51
2022-08-07T04:12:25.933Z,48.27
2022-08-07T04:14:37.311Z,48.25
2022-08-07T04:17:19.868Z,48.72
2022-08-07T04:19:52.861Z,49.09
2022-08-07T04:22:29.191Z,49.31
2022-08-07T04:24:58.546Z,49.00
2022-08-07T04:27:26.875Z,49.33
2022-08-07T04:30:01.281Z,49.32
2022-08-07T04:32:34.652Z,49.81
2022-08-07T04:35:05.730Z,49.66
2022-08-07T04:37:52.929Z,49.37
2022-08-07T04:40:29.830Z,49.63
2022-08-07T04:43:02.111Z,49.45
2022-08-07T04:45:52.085Z,49.59
2022-08-07T04:48:39.238Z,49.67
2022-08-07T04:51:17.141Z,49.25
2022-08-07T04:54:01.420Z,49.29
2022-08-07T04:58:23.768Z,49.31
2022-08-07T05:00:10.746Z,49.59
2022-08-07T05:02:30.567Z,49.90
2022-08-07T05:05:11.426Z,49.71
2022-08-07T05:07:51.754Z,49.51
2022-08-07T05:10:29.490Z,49.52
2022-08-07T05:13:09.841Z,49.36
2022-08-07T05:15:53.732Z,49.08
2022-08-07T05:18:29.660Z,48.85
2022-08-07T05:21:00.262Z,49.09
2022-08-07T05:23:35.494Z,48.84
2022-08-07T05:26:11.859Z,48.84
2022-08-07T05:28:50.007Z,48.54
2022-08-07T05:31:21.587Z,48.47
2022-08-07T05:34:04.390Z,47.96
2022-08-07T05:36:35.812Z,47.94
2022-08-07T05:39:16.004Z,48.26
2022-08-07T05:42:02.473Z,47.92
2022-08-07T05:44:34.795Z,47.81
2022-08-07T05:47:18.100Z,47.62
2022-08-07T05:49:50.347Z,47.67
2022-08-07T05:52:20.112Z,47.29
2022-08-07T05:54:55.544Z,47.23
2022-08-07T05:57:26.693Z,46.78
2022-08-07T06:00:00.154Z,46.90
2022-08-07T06:02:32.405Z,46.90
2022-08-07T06:05:06.281Z,46.63
2022-08-07T06:08:13.362Z,46.29
2022-08-07T06:10:24.928Z,45.64
2022-08-07T06:12:52.942Z,45.74
2022-08-07T06:15:39.285Z,46.05
2022-08-07T06:18:13.956Z,45.43
2022-08-07T06:20:49.977Z,45.40
2022-08-07T06:24:38.657Z,44.96
2022-08-07T06:26:21.729Z,44.77
2022-08-07T06:28:59.563Z,44.44
2022-08-07T06:31:46.869Z,44.79
2022-08-07T06:34:20.411Z,44.26
2022-08-07T06:36:52.028Z,43.90
2022-08-07T06:40:17.801Z,43.48
2022-08-07T06:42:10.831Z,43.35
2022-08-07T06:44:39.798Z,42.76
2022-08-07T06:47:12.675Z,42.65
2022-08-07T06:49:52.261Z,42.32
2022-08-07T06:52:35.633Z,42.96
2022-08-07T06:55:32.014Z,42.38
2022-08-07T06:57:59.446Z,41.90
2022-08-07T07:00:28.631Z,42.13
2022-08-07T07:03:01.164Z,41.76
2022-08-07T07:06:02.762Z,41.52
2022-08-07T07:08:28.589Z,41.93
2022-08-07T07:10:57.846Z,41.18
2022-08-07T07:13:43.653Z,40.76
2022-08-07T07:16:27.539Z,41.04
2022-08-07T07:19:04.189Z,40.86
2022-08-07T07:22:05.172Z,40.46
2022-08-07T07:24:58.407Z,40.56
2022-08-07T07:27:55.747Z,39.58
2022-08-07T07:30:26.306Z,39.92
2022-08-07T07:33:02.673Z,39.15
2022-08-07T07:35:33.338Z,39.16
2022-08-07T07:38:04.972Z,39.46
2022-08-07T07:40:36.840Z,38.91
2022-08-07T07:43:15.328Z,38.62
2022-08-07T07:46:36.990Z,38.58
2022-08-07T07:48:38.489Z,38.36
2022-08-07T07:51:08.544Z,38.07
2022-08-07T07:53:50.355Z,38.38
2022-08-07T07:56:30.306Z,37.92
2022-08-07T07:59:01.633Z,37.85
2022-08-07T08:02:03.110Z,37.92
2022-08-07T08:04:25.556Z,37.75
2022-08-07T08:06:55.245Z,37.04
2022-08-07T08:09:29.559Z,36.68
2022-08-07T08:12:05.010Z,36.69
2022-08-07T08:14:34.334Z,36.61
2022-08-07T08:17:32.295Z,36.05
2022-08-07T08:20:18.853Z,36.02
2022-08-07T08:23:08.309Z,35.84
2022-08-07T08:25:56.915Z,35.42
2022-08-07T08:28:37.579Z,35.17
2022-08-07T08:31:13.816Z,34.93
2022-08-07T08:33:48.973Z,35.04
2022-08-07T08:36:25.749Z,34.61
2022-08-07T08:39:02.078Z,34.24
2022-08-07T08:41:58.408Z,34.31
2022-08-07T08:44:41.149Z,34.70
2022-08-07T08:47:22.692Z,34.75
2022-08-07T08:50:05.008Z,34.31
2022-08-07T08:52:40.766Z,34.32
2022-08-07T08:55:55.189Z,34.08
2022-08-07T08:58:28.818Z,33.92
2022-08-07T09:01:15.752Z,34.17
2022-08-07T09:03:55.210Z,33.59
2022-08-07T09:06:48.069Z,33.78
2022-08-07T09:09:36.696Z,33.46
2022-08-07T09:12:30.522Z,33.57
2022-08-07T09:16:25.297Z,33.51
2022-08-07T09:18:27.928Z,33.26
2022-08-07T09:21:06.884Z,32.87
2022-08-07T09:24:33.138Z,32.56
2022-08-07T09:26:51.943Z,32.84
2022-08-07T09:30:04.096Z,32.86
2022-08-07T09:32:32.535Z,32.81
2022-08-07T09:36:02.768Z,32.80
2022-08-07T09:38:10.953Z,32.54
2022-08-07T09:40:52.152Z,32.34
2022-08-07T09:43:40.143Z,31.53
2022-08-07T09:47:49.462Z,31.91
2022-08-07T09:50:02.567Z,31.39
2022-08-07T09:52:34.094Z,30.79
2022-08-07T09:55:29.840Z,31.04
2022-08-07T09:58:32.409Z,30.64
2022-08-07T10:01:51.760Z,30.31
2022-08-07T10:04:28.237Z,30.22
2022-08-07T10:07:25.751Z,29.48
2022-08-07T10:10:11.977Z,29.22
2022-08-07T10:13:29.676Z,29.09
2022-08-07T10:16:16.334Z,29.08
2022-08-07T10:19:15.548Z,28.21
2022-08-07T10:22:15.765Z,28.62
2022-08-07T10:24:52.088Z,27.65
2022-08-07T10:27:46.227Z,27.48
2022-08-07T10:30:19.044Z,26.66
2022-08-07T10:33:08.408Z,27.10
2022-08-07T10:35:56.961Z,26.18
2022-08-07T10:38:48.385Z,26.06
2022-08-07T10:41:47.193Z,26.00
2022-08-07T10:44:37.420Z,25.78
2022-08-07T10:47:26.975Z,26.09
2022-08-07T10:50:15.220Z,26.38
2022-08-07T10:52:53.362Z,26.02
2022-08-07T10:55:38.711Z,25.58
2022-08-07T10:58:18.848Z,25.71
2022-08-07T11:01:22.334Z,25.50
2022-08-07T11:04:11.046Z,25.11
2022-08-07T11:06:55.013Z,24.84
2022-08-07T11:10:10.389Z,24.26
2022-08-07T11:12:31.455Z,24.51
2022-08-07T11:15:09.649Z,24.40
2022-08-07T11:17:53.911Z,24.30
2022-08-07T11:20:25.665Z,24.55
2022-08-07T11:23:02.654Z,24.83
2022-08-07T11:25:47.963Z,24.35
2022-08-07T11:28:24.667Z,24.71
2022-08-07T11:30:59.075Z,23.93
2022-08-07T11:33:54.079Z,24.01
2022-08-07T11:36:44.795Z,24.69
2022-08-07T11:39:59.333Z,24.53
2022-08-07T11:42:29.667Z,23.95
2022-08-07T11:45:01.036Z,23.00
2022-08-07T11:47:56.729Z,22.76
2022-08-07T11:50:44.297Z,22.61
2022-08-07T11:53:28.416Z,22.00
2022-08-07T11:56:26.905Z,22.09
2022-08-07T12:00:08.236Z,22.69
2022-08-07T12:02:02.017Z,22.51
2022-08-07T12:04:57.950Z,21.70
2022-08-07T12:07:39.098Z,21.80
2022-08-07T12:10:14.744Z,22.05
2022-08-07T12:12:49.221Z,21.86
2022-08-07T12:15:35.940Z,21.06
2022-08-07T12:18:22.373Z,22.48
2022-08-07T12:21:08.844Z,21.06
2022-08-07T12:24:07.030Z,21.25
2022-08-07T12:26:46.825Z,20.58
2022-08-07T12:29:38.491Z,20.79
2022-08-07T12:32:18.234Z,20.49
2022-08-07T12:34:53.456Z,20.72
2022-08-07T12:37:28.163Z,21.24
2022-08-07T12:40:46.932Z,20.59
2022-08-07T12:43:11.766Z,20.63
2022-08-07T12:46:26.003Z,20.19
2022-08-07T12:49:10.125Z,19.63
2022-08-07T12:52:12.002Z,19.22
2022-08-07T12:54:54.750Z,19.46
2022-08-07T12:57:39.262Z,19.11
2022-08-07T13:00:31.275Z,19.57
2022-08-07T13:04:02.048Z,19.29
2022-08-07T13:07:02.833Z,18.70
2022-08-07T13:10:20.027Z,18.17
2022-08-07T13:12:51.642Z,19.94
2022-08-07T13:15:31.679Z,19.64
2022-08-07T13:18:25.800Z,19.34
2022-08-07T13:21:03.627Z,19.37
2022-08-07T13:24:01.873Z,19.76
2022-08-07T13:26:35.187Z,19.19
2022-08-07T13:29:12.856Z,18.25
2022-08-07T13:31:57.357Z,18.70
2022-08-07T13:34:36.614Z,18.33
2022-08-07T13:37:20.800Z,18.61
2022-08-07T13:40:36.487Z,18.51
2022-08-07T13:42:51.388Z,18.82
2022-08-07T13:46:11.800Z,18.95
2022-08-07T13:48:27.540Z,18.76
2022-08-07T13:51:02.662Z,18.35
2022-08-07T13:54:00.688Z,17.82
2022-08-07T13:56:36.037Z,18.55
2022-08-07T13:59:13.592Z,18.39
2022-08-07T14:02:03.655Z,18.41
2022-08-07T14:04:36.021Z,18.66
2022-08-07T14:07:09.388Z,18.68
2022-08-07T14:10:12.633Z,18.93
2022-08-07T14:12:36.190Z,19.50
2022-08-07T14:15:18.606Z,19.52
2022-08-07T14:18:15.963Z,18.97
2022-08-07T14:20:39.997Z,19.07
2022-08-07T14:23:12.433Z,18.63
2022-08-07T14:25:45.833Z,18.62
2022-08-07T14:28:16.398Z,18.87
2022-08-07T14:30:47.636Z,18.72
2022-08-07T14:33:22.326Z,18.67
2022-08-07T14:35:55.898Z,18.75
2022-08-07T14:38:30.905Z,19.16
2022-08-07T14:41:00.814Z,19.25
2022-08-07T14:43:58.340Z,18.70
2022-08-07T14:46:31.199Z,18.55
2022-08-07T14:49:17.355Z,18.27
2022-08-07T14:52:05.032Z,18.44
2022-08-07T14:54:35.860Z,18.65
2022-08-07T14:57:14.891Z,19.20
2022-08-07T15:00:04.674Z,18.78
2022-08-07T15:02:37.148Z,18.89
2022-08-07T15:05:19.586Z,18.95
2022-08-07T15:07:52.278Z,19.13
2022-08-07T15:10:26.721Z,19.16
2022-08-07T15:12:59.064Z,19.11
2022-08-07T15:15:30.726Z,19.75
2022-08-07T15:18:02.804Z,20.10
2022-08-07T15:20:54.583Z,20.25
2022-08-07T15:25:04.067Z,20.35
2022-08-07T15:26:21.290Z,20.14
2022-08-07T15:28:56.653Z,20.00
2022-08-07T15:31:58.132Z,20.29
2022-08-07T15:34:26.124Z,20.70
2022-08-07T15:39:56.853Z,20.44
2022-08-07T15:45:56.804Z,20.35
2022-08-07T15:48:29.923Z,20.66
2022-08-07T15:51:08.774Z,21.04
2022-08-07T15:53:52.871Z,20.49
2022-08-07T15:56:24.158Z,20.86
2022-08-07T15:58:53.627Z,21.04
2022-08-07T16:01:23.788Z,20.81
2022-08-07T16:04:14.275Z,20.82
2022-08-07T16:06:44.157Z,21.00
2022-08-07T16:09:22.629Z,20.88
2022-08-07T16:12:04.055Z,20.97
2022-08-07T16:14:36.247Z,21.27
2022-08-07T16:17:14.888Z,21.88
2022-08-07T16:19:59.759Z,21.64
2022-08-07T16:22:54.328Z,21.76
2022-08-07T16:25:52.541Z,22.17
2022-08-07T16:30:08.532Z,22.20
2022-08-07T16:31:57.243Z,22.14
2022-08-07T16:34:28.365Z,21.73
2022-08-07T16:38:04.607Z,22.19
2022-08-07T16:40:28.663Z,22.87
2022-08-07T16:43:05.143Z,22.57
2022-08-07T16:46:34.752Z,22.59
2022-08-07T16:48:53.847Z,22.31
2022-08-07T16:51:54.129Z,22.63
2022-08-07T16:54:54.429Z,22.62
2022-08-07T16:58:02.701Z,22.58
2022-08-07T17:00:29.936Z,22.40
2022-08-07T17:03:17.211Z,22.83
2022-08-07T17:06:22.448Z,22.91
2022-08-07T17:08:57.222Z,22.76
2022-08-07T17:11:27.759Z,22.51
2022-08-07T17:14:22.269Z,22.89
2022-08-07T17:16:55.936Z,23.15
2022-08-07T17:20:01.979Z,22.83
2022-08-07T17:22:36.229Z,23.10
2022-08-07T17:25:10.972Z,23.05
2022-08-07T17:27:51.050Z,23.47
2022-08-07T17:30:26.828Z,23.10
2022-08-07T17:33:05.061Z,23.30
2022-08-07T17:35:56.246Z,23.20
2022-08-07T17:38:33.671Z,23.32
2022-08-07T17:42:00.685Z,23.50
2022-08-07T17:44:02.954Z,23.53
2022-08-07T17:46:40.283Z,23.53
2022-08-07T17:49:10.466Z,23.37
2022-08-07T17:52:00.895Z,23.82
2022-08-07T17:54:53.186Z,23.97
2022-08-07T17:57:25.189Z,23.80
2022-08-07T18:00:32.728Z,23.68
2022-08-07T18:03:09.387Z,24.23
2022-08-07T18:06:03.387Z,24.03
2022-08-07T18:08:32.554Z,24.53
2022-08-07T18:12:06.809Z,24.27
2022-08-07T18:14:01.529Z,24.60
2022-08-07T18:16:32.979Z,24.63
2022-08-07T18:21:08.187Z,24.63
2022-08-07T18:22:06.300Z,24.84
2022-08-07T18:24:43.021Z,24.98
2022-08-07T18:27:17.379Z,25.26
2022-08-07T18:30:08.294Z,25.10
2022-08-07T18:33:00.257Z,25.56
2022-08-07T18:35:51.844Z,25.65
2022-08-07T18:38:58.567Z,25.79
2022-08-07T18:41:20.601Z,25.92
2022-08-07T18:43:57.588Z,26.18
2022-08-07T18:46:30.267Z,26.07
2022-08-07T18:50:30.663Z,26.13
2022-08-07T18:52:35.590Z,26.34
2022-08-07T18:54:50.984Z,26.21
2022-08-07T18:57:31.048Z,26.56
2022-08-07T19:00:34.496Z,26.55
2022-08-07T19:02:59.868Z,26.79
2022-08-07T19:06:03.058Z,26.81
2022-08-07T19:08:19.971Z,27.02
2022-08-07T19:10:51.686Z,27.19
2022-08-07T19:13:41.982Z,27.33
2022-08-07T19:17:00.719Z,27.32
2022-08-07T19:19:13.148Z,27.45
2022-08-07T19:21:53.472Z,27.46
2022-08-07T19:24:30.770Z,27.63
2022-08-07T19:28:29.783Z,27.71
2022-08-07T19:30:55.743Z,28.01
2022-08-07T19:32:45.452Z,27.87
2022-08-07T19:35:17.831Z,28.03
2022-08-07T19:37:57.175Z,28.20
2022-08-07T19:40:31.325Z,28.38
2022-08-07T19:43:01.053Z,28.52
2022-08-07T19:46:07.689Z,28.46
2022-08-07T19:48:24.438Z,28.79
2022-08-07T19:50:53.577Z,28.81
2022-08-07T19:54:33.483Z,29.07
2022-08-07T19:58:01.693Z,29.29
2022-08-07T19:59:02.568Z,29.25
2022-08-07T20:01:56.089Z,29.26
2022-08-07T20:04:31.432Z,29.55
2022-08-07T20:07:09.258Z,29.64
2022-08-07T20:10:37.332Z,29.77
2022-08-07T20:12:34.422Z,29.96
2022-08-07T20:15:04.552Z,30.28
2022-08-07T20:17:40.507Z,30.27
2022-08-07T20:20:11.977Z,30.49
2022-08-07T20:22:45.221Z,30.30
2022-08-07T20:25:19.723Z,30.66
2022-08-07T20:27:54.303Z,30.76
2022-08-07T20:30:30.902Z,30.73
2022-08-07T20:33:00.875Z,30.78
2022-08-07T20:35:34.237Z,31.10
2022-08-07T20:38:06.274Z,31.27
2022-08-07T20:40:41.303Z,31.44
2022-08-07T20:43:19.260Z,31.18
2022-08-07T20:46:27.148Z,31.48
2022-08-07T20:48:42.230Z,31.85
2022-08-07T20:51:30.196Z,31.91
2022-08-07T20:54:08.711Z,31.93
2022-08-07T20:56:48.259Z,32.15
2022-08-07T21:00:04.839Z,32.66
2022-08-07T21:02:14.577Z,32.66
2022-08-07T21:04:55.897Z,33.27
2022-08-07T21:07:25.949Z,33.16
2022-08-07T21:09:59.105Z,33.29
2022-08-07T21:12:30.957Z,33.35
2022-08-07T21:15:02.654Z,33.16
2022-08-07T21:18:02.996Z,33.20
2022-08-07T21:20:29.799Z,33.35
2022-08-07T21:22:59.298Z,33.74
2022-08-07T21:25:43.552Z,33.78
2022-08-07T21:28:13.373Z,34.06
2022-08-07T21:30:46.562Z,33.93
2022-08-07T21:33:17.719Z,34.10
2022-08-07T21:36:05.134Z,34.18
2022-08-07T21:38:46.885Z,34.22
2022-08-07T21:41:20.598Z,34.30
2022-08-07T21:43:56.068Z,34.78
2022-08-07T21:46:31.884Z,34.69
2022-08-07T21:49:04.768Z,34.75
2022-08-07T21:51:50.977Z,34.94
2022-08-07T21:54:26.625Z,34.97
2022-08-07T21:57:05.254Z,35.08
2022-08-07T22:00:02.832Z,35.21
2022-08-07T22:02:27.599Z,35.26
2022-08-07T22:04:59.923Z,35.23
2022-08-07T22:07:31.399Z,35.22
2022-08-07T22:10:04.118Z,35.25
2022-08-07T22:12:35.990Z,35.23
2022-08-07T22:16:42.550Z,35.07
2022-08-07T22:17:57.779Z,34.89
2022-08-07T22:20:28.460Z,34.85
2022-08-07T22:23:01.610Z,34.82
2022-08-07T22:25:36.515Z,35.04
2022-08-07T22:28:30.262Z,35.45
2022-08-07T22:30:58.506Z,35.12
2022-08-07T22:33:52.533Z,35.38
2022-08-07T22:36:26.404Z,35.58
2022-08-07T22:38:59.886Z,35.50
2022-08-07T22:42:03.681Z,35.72
2022-08-07T22:44:20.183Z,35.50
2022-08-07T22:47:03.310Z,35.64
2022-08-07T22:49:42.885Z,35.49
2022-08-07T22:52:39.971Z,35.65
2022-08-07T22:55:30.239Z,35.41
2022-08-07T22:58:18.973Z,35.81
2022-08-07T23:00:54.852Z,35.61
2022-08-07T23:03:58.456Z,35.50
2022-08-07T23:06:35.812Z,35.52
2022-08-07T23:10:01.049Z,35.66
2022-08-07T23:12:10.204Z,35.91
2022-08-07T23:14:48.335Z,35.99
2022-08-07T23:17:26.939Z,36.01
2022-08-07T23:20:51.437Z,36.12
2022-08-07T23:24:05.013Z,36.35
2022-08-07T23:26:23.382Z,36.06
2022-08-07T23:29:17.150Z,36.09
2022-08-07T23:34:23.019Z,36.23
2022-08-07T23:35:08.601Z,36.47
2022-08-07T23:38:01.320Z,36.55
2022-08-07T23:40:35.423Z,36.50
2022-08-07T23:43:21.397Z,36.55
2022-08-07T23:46:03.100Z,36.83
2022-08-07T23:48:43.323Z,36.89
2022-08-07T23:53:05.140Z,37.35
2022-08-07T23:54:08.323Z,37.88
2022-08-07T23:56:54.000Z,37.86
